Time;durP1;ratioP1;P1;durP2;ratioP2;P2;SDS_P1;SDS_P2;PMS_P1;PMS_P2;Temp;Humidity;BMP_temperature;BMP_pressure;BME280_temperature;BME280_humidity;BME280_pressure;Samples;Min_cycle;Max_cycle;Signal;HPM_P1;HPM_P2
2023/04/22 00:00:49;;;;;;;12.23;2.92;;;;;;;14.73;30.96;98786.84;5005543;28;20468;-68
2023/04/22 00:03:15;;;;;;;8.10;3.00;;;;;;;14.65;31.17;98787.03;4997133;28;20049;-70
2023/04/22 00:05:44;;;;;;;6.85;2.60;;;;;;;14.64;31.34;98772.84;4981645;28;20042;-68
2023/04/22 00:08:10;;;;;;;11.50;2.75;;;;;;;14.60;31.34;98776.97;5022115;28;20103;-68
2023/04/22 00:10:36;;;;;;;9.57;2.75;;;;;;;14.62;31.33;98790.13;4989249;28;20053;-67
2023/04/22 00:13:02;;;;;;;5.50;2.80;;;;;;;14.57;31.58;98784.53;4996932;28;20045;-66
2023/04/22 00:15:32;;;;;;;10.20;2.50;;;;;;;14.60;31.47;98790.31;5002611;28;20046;-68
2023/04/22 00:17:58;;;;;;;5.80;2.45;;;;;;;14.57;31.46;98776.53;5000064;28;20172;-68
2023/04/22 00:20:25;;;;;;;9.90;2.83;;;;;;;14.59;31.58;98787.84;4930733;28;20046;-69
2023/04/22 00:22:51;;;;;;;4.35;2.60;;;;;;;14.53;31.71;98786.78;4924946;29;20094;-68
2023/04/22 00:25:17;;;;;;;9.77;2.72;;;;;;;14.54;31.65;98783.13;4952791;28;20084;-69
2023/04/22 00:27:44;;;;;;;9.68;2.60;;;;;;;14.49;31.74;98785.56;4942759;28;20073;-69
2023/04/22 00:30:10;;;;;;;6.88;2.70;;;;;;;14.56;31.51;98780.25;4942127;28;20046;-68
2023/04/22 00:32:37;;;;;;;6.40;2.67;;;;;;;14.45;32.06;98786.97;4942034;28;20519;-68
2023/04/22 00:35:04;;;;;;;8.02;2.33;;;;;;;14.51;32.06;98788.03;4943764;28;20046;-68
2023/04/22 00:37:30;;;;;;;7.38;2.60;;;;;;;14.46;31.90;98790.50;4943515;28;20062;-68
2023/04/22 00:39:56;;;;;;;6.75;2.35;;;;;;;14.45;32.04;98789.66;4943341;28;20081;-69
2023/04/22 00:42:23;;;;;;;7.40;2.40;;;;;;;14.39;32.09;98787.00;4943400;28;20066;-68
2023/04/22 00:44:50;;;;;;;7.18;2.70;;;;;;;14.42;32.27;98782.03;4975722;28;20053;-68
2023/04/22 00:47:25;;;;;;;9.70;2.38;;;;;;;14.35;32.18;98777.72;4964101;28;20077;-70
2023/04/22 00:49:52;;;;;;;6.68;2.20;;;;;;;14.40;32.19;98775.28;4995638;28;20118;-69
2023/04/22 00:52:18;;;;;;;7.00;2.42;;;;;;;14.32;32.11;98775.47;5047452;28;20048;-69
2023/04/22 00:54:45;;;;;;;5.78;2.30;;;;;;;14.26;32.28;98782.44;5038821;28;20041;-68
2023/04/22 00:57:11;;;;;;;11.73;2.40;;;;;;;14.26;32.29;98786.94;5034348;28;20114;-68
2023/04/22 00:59:37;;;;;;;10.52;2.30;;;;;;;14.27;32.14;98785.94;5001098;28;20066;-69
2023/04/22 01:02:03;;;;;;;7.97;2.65;;;;;;;14.22;32.35;98786.50;5017618;28;20076;-68
2023/04/22 01:04:30;;;;;;;7.72;2.60;;;;;;;14.31;32.49;98782.66;4974998;28;20531;-69
2023/04/22 01:06:56;;;;;;;6.07;2.42;;;;;;;14.30;32.61;98780.19;4975015;28;20109;-68
2023/04/22 01:09:23;;;;;;;6.28;2.53;;;;;;;14.29;32.67;98778.53;4974972;28;20370;-69
2023/04/22 01:11:49;;;;;;;5.55;2.50;;;;;;;14.20;32.40;98779.72;4927215;28;20062;-69
2023/04/22 01:14:15;;;;;;;10.68;2.42;;;;;;;14.18;32.50;98781.75;4939742;28;20362;-69
2023/04/22 01:16:42;;;;;;;9.23;2.78;;;;;;;14.19;32.80;98783.41;4939542;28;20071;-68
2023/04/22 01:19:10;;;;;;;8.27;2.70;;;;;;;14.24;32.82;98787.16;4955847;28;20086;-69
2023/04/22 01:21:38;;;;;;;5.70;2.30;;;;;;;14.23;32.68;98784.66;4936901;28;20473;-68
2023/04/22 01:24:04;;;;;;;6.20;2.33;;;;;;;14.15;32.76;98774.97;4952533;28;20059;-69
2023/04/22 01:26:32;;;;;;;8.25;2.67;;;;;;;14.09;32.99;98782.97;4936024;28;20145;-70
2023/04/22 01:28:57;;;;;;;6.55;2.40;;;;;;;14.08;32.84;98779.50;4950759;28;20812;-68
2023/04/22 01:31:23;;;;;;;7.60;2.40;;;;;;;14.03;33.05;98784.59;4938124;28;20536;-68
2023/04/22 01:33:50;;;;;;;6.05;2.50;;;;;;;14.07;32.81;98785.84;4938997;28;20533;-67
2023/04/22 01:36:16;;;;;;;4.13;2.13;;;;;;;14.04;33.00;98780.09;4991675;28;20060;-68
2023/04/22 01:38:45;;;;;;;6.20;2.30;;;;;;;14.00;33.03;98776.16;4999202;28;20481;-69
2023/04/22 01:41:12;;;;;;;5.97;2.53;;;;;;;14.11;32.94;98775.59;4998752;28;20041;-68
2023/04/22 01:43:39;;;;;;;6.53;2.58;;;;;;;13.96;33.11;98772.25;5000171;28;20049;-69
2023/04/22 01:46:05;;;;;;;4.60;2.28;;;;;;;13.96;33.08;98767.72;5048473;28;20051;-69
2023/04/22 01:48:31;;;;;;;7.40;2.40;;;;;;;13.92;33.05;98771.81;5021127;28;20048;-68
2023/04/22 01:50:59;;;;;;;8.48;2.28;;;;;;;13.90;33.24;98768.53;5033133;28;20158;-69
2023/04/22 01:53:25;;;;;;;5.78;2.22;;;;;;;13.95;33.29;98770.59;5000533;28;20056;-68
2023/04/22 01:55:51;;;;;;;6.57;2.10;;;;;;;13.86;33.32;98766.47;4993614;28;20089;-70
2023/04/22 01:58:18;;;;;;;7.05;2.20;;;;;;;13.85;33.35;98767.50;4977579;28;20065;-68
2023/04/22 02:00:44;;;;;;;8.55;2.50;;;;;;;13.82;33.68;98766.06;4982975;28;20045;-69
2023/04/22 02:03:11;;;;;;;5.35;2.03;;;;;;;13.83;33.59;98772.19;5032952;28;20911;-69
2023/04/22 02:05:38;;;;;;;6.32;2.50;;;;;;;13.94;33.64;98772.47;5000221;28;20148;-68
2023/04/22 02:08:05;;;;;;;7.72;2.58;;;;;;;13.83;33.58;98765.03;5033062;28;20041;-68
2023/04/22 02:10:31;;;;;;;5.70;2.40;;;;;;;13.83;33.52;98765.03;5000226;28;20057;-68
2023/04/22 02:12:58;;;;;;;7.63;2.28;;;;;;;13.92;33.73;98766.50;5032582;28;20056;-68
2023/04/22 02:15:24;;;;;;;3.33;2.13;;;;;;;13.80;33.60;98769.94;5032825;28;20061;-68
2023/04/22 02:17:53;;;;;;;5.28;2.05;;;;;;;13.79;33.53;98771.78;5032400;28;20463;-69
2023/04/22 02:20:19;;;;;;;10.13;2.40;;;;;;;13.82;33.52;98778.56;5000466;28;20044;-68
2023/04/22 02:22:45;;;;;;;6.80;2.40;;;;;;;13.85;33.54;98771.00;5016417;28;20390;-69
2023/04/22 02:25:12;;;;;;;5.80;2.30;;;;;;;13.82;33.65;98776.72;5019826;28;20040;-68
2023/04/22 02:27:39;;;;;;;6.10;2.22;;;;;;;13.82;33.84;98784.75;5050703;28;20147;-68
2023/04/22 02:30:06;;;;;;;6.22;2.17;;;;;;;13.81;33.92;98776.94;5037155;28;20120;-69
2023/04/22 02:32:32;;;;;;;5.65;2.50;;;;;;;13.71;34.06;98776.47;5053921;28;20060;-69
2023/04/22 02:35:00;;;;;;;7.75;2.67;;;;;;;13.69;34.16;98774.00;5055303;28;20040;-69
2023/04/22 02:37:26;;;;;;;6.18;2.20;;;;;;;13.74;34.05;98779.56;5057825;28;20052;-69
2023/04/22 02:39:54;;;;;;;6.15;2.40;;;;;;;13.75;33.92;98781.19;5024909;28;20386;-69
2023/04/22 02:42:19;;;;;;;6.05;2.20;;;;;;;13.79;34.04;98786.97;5025003;28;20043;-68
2023/04/22 02:44:46;;;;;;;12.13;3.60;;;;;;;13.82;33.97;98792.75;5057628;28;20040;-68
2023/04/22 02:47:12;;;;;;;6.78;2.65;;;;;;;13.79;33.95;98785.13;5040964;28;20048;-69
2023/04/22 02:49:39;;;;;;;5.93;2.80;;;;;;;13.83;34.01;98788.22;5024526;28;20057;-68
2023/04/22 02:52:05;;;;;;;8.88;3.75;;;;;;;13.86;33.92;98785.97;5040777;28;20044;-67
2023/04/22 02:54:31;;;;;;;14.55;2.80;;;;;;;13.92;33.49;98792.34;5040965;28;20040;-67
2023/04/22 02:56:57;;;;;;;10.07;2.80;;;;;;;13.93;33.91;98794.03;5000102;28;20479;-67
2023/04/22 02:59:23;;;;;;;5.38;2.50;;;;;;;13.95;33.88;98795.44;4984144;28;20054;-68
2023/04/22 03:01:51;;;;;;;11.88;2.83;;;;;;;13.97;33.66;98800.59;5000153;28;20095;-68
2023/04/22 03:04:32;;;;;;;13.63;3.95;;;;;;;13.99;33.81;98799.34;5000038;28;20061;-69
2023/04/22 03:06:59;;;;;;;14.85;3.20;;;;;;;14.05;33.72;98784.41;5000217;28;20068;-69
2023/04/22 03:09:24;;;;;;;13.18;3.15;;;;;;;14.02;34.21;98787.47;4983618;28;20049;-69
2023/04/22 03:11:50;;;;;;;9.85;3.45;;;;;;;14.07;34.16;98795.72;5000167;28;20061;-68
2023/04/22 03:14:18;;;;;;;12.65;3.92;;;;;;;14.11;33.94;98799.63;4964251;28;20512;-68
2023/04/22 03:16:44;;;;;;;8.55;3.75;;;;;;;14.16;34.20;98799.84;4964075;28;20058;-68
2023/04/22 03:19:11;;;;;;;15.57;3.70;;;;;;;14.34;33.80;98800.13;4964203;28;20061;-68
2023/04/22 03:21:37;;;;;;;5.80;3.25;;;;;;;14.26;33.57;98802.97;4922452;29;20055;-68
2023/04/22 03:24:04;;;;;;;13.32;3.90;;;;;;;14.34;33.59;98808.13;4954301;29;20524;-67
2023/04/22 03:26:32;;;;;;;12.07;3.80;;;;;;;14.31;33.59;98804.03;4906901;29;20118;-68
2023/04/22 03:28:59;;;;;;;10.52;3.65;;;;;;;14.39;33.38;98798.47;4956131;28;20055;-68
2023/04/22 03:31:25;;;;;;;11.02;5.03;;;;;;;14.45;33.31;98805.69;4957412;28;20055;-69
2023/04/22 03:33:51;;;;;;;11.00;4.15;;;;;;;14.51;33.33;98801.41;4957750;28;20054;-68
2023/04/22 03:36:27;;;;;;;8.15;3.47;;;;;;;14.50;33.26;98813.91;4941397;28;20073;-68
2023/04/22 03:38:53;;;;;;;8.15;3.65;;;;;;;14.54;33.32;98809.00;4941653;28;20070;-67
2023/04/22 03:41:25;;;;;;;9.98;3.70;;;;;;;14.62;33.08;98811.50;4937916;29;20087;-68
2023/04/22 03:43:51;;;;;;;13.98;4.07;;;;;;;14.68;33.07;98810.66;4956823;28;20557;-68
2023/04/22 03:46:17;;;;;;;13.57;4.55;;;;;;;14.71;33.26;98815.59;4979195;28;20061;-68
2023/04/22 03:48:51;;;;;;;12.07;4.15;;;;;;;14.77;33.08;98820.97;4984420;28;20156;-67
2023/04/22 03:51:29;;;;;;;16.65;4.45;;;;;;;14.78;32.99;98817.25;5016846;28;20247;-69
2023/04/22 03:53:56;;;;;;;18.50;4.90;;;;;;;14.87;32.80;98823.22;5022577;28;20414;-68
2023/04/22 03:56:26;;;;;;;20.58;4.82;;;;;;;15.04;32.87;98822.63;5039822;28;20058;-67
2023/04/22 03:58:56;;;;;;;13.48;4.20;;;;;;;14.98;32.78;98820.75;5010199;28;20476;-69
2023/04/22 04:01:24;;;;;;;10.02;5.05;;;;;;;15.09;32.56;98822.00;4965493;28;20046;-68
2023/04/22 04:03:53;;;;;;;10.90;4.30;;;;;;;15.22;32.53;98820.13;4934456;28;20121;-68
2023/04/22 04:06:21;;;;;;;14.13;5.57;;;;;;;15.17;32.26;98821.78;4963693;28;20133;-68
2023/04/22 04:08:47;;;;;;;16.90;6.28;;;;;;;15.23;32.37;98820.97;4972960;28;20153;-68
2023/04/22 04:11:13;;;;;;;17.75;6.70;;;;;;;15.31;32.37;98833.28;4933683;28;20085;-68
2023/04/22 04:13:39;;;;;;;18.65;5.82;;;;;;;15.41;32.23;98831.06;4972801;28;20054;-67
2023/04/22 04:16:21;;;;;;;15.45;6.28;;;;;;;15.46;32.00;98825.88;4950854;28;20662;-68
2023/04/22 04:18:55;;;;;;;18.75;6.05;;;;;;;15.59;31.96;98828.56;4951684;28;20094;-67
2023/04/22 04:21:23;;;;;;;16.73;5.97;;;;;;;15.62;31.72;98831.63;4970704;28;20062;-69
2023/04/22 04:23:54;;;;;;;19.33;6.17;;;;;;;15.83;31.62;98834.06;4973061;28;20049;-69
2023/04/22 04:26:26;;;;;;;17.63;6.13;;;;;;;15.82;31.31;98834.25;4932003;28;20043;-69
2023/04/22 04:29:01;;;;;;;11.32;5.70;;;;;;;15.91;31.02;98823.13;4951868;29;20094;-68
2023/04/22 04:31:28;;;;;;;11.40;4.88;;;;;;;15.98;31.03;98825.75;4939171;28;20078;-69
2023/04/22 04:33:57;;;;;;;18.67;5.07;;;;;;;16.02;30.90;98838.50;4924963;28;20166;-68
2023/04/22 04:36:28;;;;;;;16.27;4.72;;;;;;;16.09;30.87;98833.13;4947809;28;20133;-68
2023/04/22 04:39:00;;;;;;;8.02;4.28;;;;;;;16.15;30.45;98827.75;4967174;28;20054;-66
2023/04/22 04:41:28;;;;;;;7.85;3.45;;;;;;;16.25;30.22;98836.13;4960015;28;20156;-67
2023/04/22 04:43:55;;;;;;;10.20;3.70;;;;;;;16.32;30.25;98836.09;4959480;28;20089;-72
2023/04/22 04:46:28;;;;;;;15.13;3.58;;;;;;;16.42;30.13;98844.53;4991806;28;20046;-70
2023/04/22 04:48:56;;;;;;;12.43;3.20;;;;;;;16.52;29.67;98843.06;4959675;28;20121;-72
2023/04/22 04:51:24;;;;;;;8.85;3.53;;;;;;;16.57;29.81;98845.09;4976640;28;20061;-74
2023/04/22 04:53:55;;;;;;;14.65;2.72;;;;;;;16.60;29.30;98840.13;5009216;28;20631;-73
2023/04/22 04:56:21;;;;;;;7.15;2.65;;;;;;;16.70;29.39;98842.31;4960299;28;20508;-74
2023/04/22 04:58:47;;;;;;;11.10;3.22;;;;;;;16.77;29.27;98845.78;4994792;28;20468;-74
2023/04/22 05:01:25;;;;;;;7.57;2.70;;;;;;;16.81;29.21;98842.44;4969064;28;20072;-69
2023/04/22 05:03:52;;;;;;;7.53;2.72;;;;;;;16.92;29.00;98845.47;5027664;28;20048;-70
2023/04/22 05:06:19;;;;;;;9.57;2.70;;;;;;;16.92;28.68;98843.59;4997641;28;20553;-74
2023/04/22 05:08:49;;;;;;;7.68;2.92;;;;;;;17.08;28.65;98847.63;5014084;28;20888;-72
2023/04/22 05:11:15;;;;;;;9.52;2.85;;;;;;;17.12;28.53;98852.31;5013922;28;20053;-68
2023/04/22 05:13:43;;;;;;;9.25;2.65;;;;;;;17.20;28.61;98859.28;5023073;28;20053;-69
2023/04/22 05:16:15;;;;;;;10.52;2.72;;;;;;;17.31;28.49;98854.03;5022463;28;20551;-71
2023/04/22 05:18:40;;;;;;;11.57;3.78;;;;;;;17.37;28.06;98860.38;5035728;28;20076;-71
2023/04/22 05:21:09;;;;;;;14.90;4.00;;;;;;;17.41;28.17;98845.47;5011252;28;20052;-71
2023/04/22 05:23:35;;;;;;;10.55;2.88;;;;;;;17.62;28.26;98859.31;5002402;28;20032;-68
2023/04/22 05:26:04;;;;;;;10.27;2.60;;;;;;;17.68;27.81;98863.00;5019284;28;20048;-74
2023/04/22 05:28:30;;;;;;;12.70;2.47;;;;;;;17.72;27.83;98856.97;5019092;28;20363;-73
2023/04/22 05:30:56;;;;;;;13.40;3.60;;;;;;;17.84;27.67;98868.63;5052389;28;20122;-72
2023/04/22 05:33:25;;;;;;;8.43;2.35;;;;;;;17.92;27.41;98859.44;5008222;28;20041;-69
2023/04/22 05:35:51;;;;;;;17.38;3.55;;;;;;;18.04;28.03;98854.94;5033586;28;20387;-67
2023/04/22 05:38:22;;;;;;;14.65;2.90;;;;;;;18.14;27.88;98858.75;5065977;28;20060;-67
2023/04/22 05:40:48;;;;;;;9.90;3.00;;;;;;;18.20;27.35;98849.78;4986066;28;20106;-69
2023/04/22 05:43:15;;;;;;;5.80;2.08;;;;;;;18.31;26.09;98861.66;5002450;28;20040;-68
2023/04/22 05:45:48;;;;;;;6.90;2.00;;;;;;;18.45;25.99;98857.81;5017048;28;20141;-67
2023/04/22 05:48:15;;;;;;;6.80;1.70;;;;;;;18.36;26.00;98857.25;5003716;28;20052;-67
2023/04/22 05:50:51;;;;;;;6.35;2.10;;;;;;;18.49;26.31;98850.91;5005646;28;20037;-67
2023/04/22 05:53:17;;;;;;;6.40;1.73;;;;;;;18.58;25.92;98848.72;5018792;28;20059;-67
2023/04/22 05:55:43;;;;;;;4.70;1.70;;;;;;;18.58;25.35;98862.16;5001145;28;20048;-67
2023/04/22 05:58:09;;;;;;;15.68;2.17;;;;;;;18.72;25.10;98863.63;5002154;28;20059;-67
2023/04/22 06:00:49;;;;;;;19.55;1.90;;;;;;;18.83;25.35;98868.22;5020139;28;20207;-67
2023/04/22 06:03:37;;;;;;;4.65;1.60;;;;;;;18.99;25.21;98859.50;5024626;28;20044;-67
2023/04/22 06:06:03;;;;;;;6.32;1.52;;;;;;;19.05;24.85;98856.69;5003474;28;20525;-70
2023/04/22 06:08:30;;;;;;;6.00;1.70;;;;;;;19.18;24.90;98863.75;5008123;28;20505;-68
2023/04/22 06:10:56;;;;;;;5.95;2.00;;;;;;;19.17;24.66;98862.94;5043951;28;20105;-69
2023/04/22 06:13:26;;;;;;;8.60;2.05;;;;;;;19.43;24.86;98857.16;5045192;28;20047;-69
2023/04/22 06:15:52;;;;;;;7.47;1.65;;;;;;;19.45;24.59;98863.09;5061628;28;20044;-68
2023/04/22 06:18:42;;;;;;;6.10;1.70;;;;;;;19.83;24.07;98860.75;5061159;28;20063;-68
2023/04/22 06:21:11;;;;;;;5.70;1.70;;;;;;;19.58;23.90;98854.81;5044066;28;20138;-69
2023/04/22 06:23:37;;;;;;;11.63;2.13;;;;;;;19.63;23.88;98865.72;5043825;28;20158;-67
2023/04/22 06:26:04;;;;;;;1.80;1.30;;;;;;;19.75;23.37;98863.00;5043745;28;20589;-67
2023/04/22 06:28:31;;;;;;;8.50;1.70;;;;;;;19.76;23.77;98862.75;5037082;28;20465;-67
2023/04/22 06:31:02;;;;;;;7.80;1.63;;;;;;;19.96;23.40;98855.13;5004806;28;20450;-67
2023/04/22 06:33:29;;;;;;;10.68;1.70;;;;;;;19.96;23.57;98860.50;5019589;28;20461;-67
2023/04/22 06:35:55;;;;;;;4.03;1.30;;;;;;;20.12;23.17;98858.97;5017185;28;20049;-66
2023/04/22 06:38:21;;;;;;;4.63;1.17;;;;;;;20.18;23.10;98862.59;5005837;28;20041;-66
2023/04/22 06:41:07;;;;;;;4.25;1.02;;;;;;;20.25;23.00;98855.22;5014573;28;20100;-69
2023/04/22 06:43:37;;;;;;;4.90;1.53;;;;;;;20.34;23.01;98851.91;5007847;28;20110;-70
2023/04/22 06:46:09;;;;;;;4.03;1.70;;;;;;;20.64;22.74;98854.34;5016295;28;20059;-71
2023/04/22 06:48:58;;;;;;;4.68;1.63;;;;;;;20.73;22.27;98861.00;5018558;28;20052;-71
2023/04/22 06:51:27;;;;;;;6.63;1.67;;;;;;;20.84;22.12;98857.44;5018954;28;20541;-69
2023/04/22 06:53:53;;;;;;;10.88;1.83;;;;;;;20.93;22.05;98859.50;5030899;28;20055;-69
2023/04/22 06:56:19;;;;;;;5.30;1.60;;;;;;;21.01;21.82;98847.50;5019789;28;20040;-68
2023/04/22 06:58:44;;;;;;;3.15;1.30;;;;;;;21.15;21.98;98843.44;5040214;28;20078;-71
2023/04/22 07:01:10;;;;;;;5.03;1.52;;;;;;;21.32;21.61;98846.97;5042318;28;20051;-68
2023/04/22 07:03:39;;;;;;;6.05;1.73;;;;;;;21.42;21.28;98847.09;5074268;28;20439;-68
2023/04/22 07:06:09;;;;;;;9.40;1.95;;;;;;;21.48;21.17;98848.84;5049978;28;20071;-68
2023/04/22 07:08:34;;;;;;;3.47;1.48;;;;;;;21.56;21.08;98854.66;5057375;28;20067;-69
2023/04/22 07:11:01;;;;;;;5.93;1.27;;;;;;;21.78;20.97;98852.03;5055569;28;20024;-70
2023/04/22 07:13:36;;;;;;;12.30;1.65;;;;;;;21.96;20.65;98846.31;5054094;28;20504;-69
2023/04/22 07:16:02;;;;;;;7.70;1.58;;;;;;;22.09;20.32;98850.56;5071295;28;20067;-70
2023/04/22 07:18:28;;;;;;;15.48;2.45;;;;;;;22.36;20.45;98860.38;5058289;28;20494;-70
2023/04/22 07:20:54;;;;;;;6.22;1.58;;;;;;;22.59;19.94;98857.41;5055071;28;20058;-69
2023/04/22 07:23:20;;;;;;;7.05;1.85;;;;;;;22.94;19.48;98860.50;5022030;28;20040;-69
2023/04/22 07:25:46;;;;;;;6.18;1.63;;;;;;;23.15;19.30;98859.63;5029150;28;20048;-70
2023/04/22 07:28:13;;;;;;;6.75;2.30;;;;;;;23.46;18.94;98859.91;5058660;28;20036;-69
2023/04/22 07:30:39;;;;;;;11.50;1.67;;;;;;;24.88;17.84;98859.28;5058545;28;20052;-70
2023/04/22 07:33:05;;;;;;;7.22;1.70;;;;;;;27.56;15.52;98845.38;5041551;28;20060;-69
2023/04/22 07:35:30;;;;;;;5.47;1.35;;;;;;;30.25;12.98;98843.72;5058819;28;20052;-69
2023/04/22 07:37:57;;;;;;;6.95;1.73;;;;;;;30.23;12.79;98845.16;5042601;28;20127;-70
2023/04/22 07:40:22;;;;;;;5.72;1.48;;;;;;;29.27;13.19;98852.31;5041970;28;20143;-69
2023/04/22 07:42:49;;;;;;;8.85;2.08;;;;;;;30.05;12.56;98849.56;5042353;28;20415;-70
2023/04/22 07:45:15;;;;;;;5.35;1.70;;;;;;;31.44;11.84;98846.81;5041515;28;20044;-72
2023/04/22 07:47:41;;;;;;;3.28;1.58;;;;;;;33.82;10.17;98856.78;5058406;28;20032;-70
2023/04/22 07:50:07;;;;;;;5.25;1.45;;;;;;;36.44;8.44;98857.09;5058255;28;20132;-69
2023/04/22 07:52:33;;;;;;;4.13;1.50;;;;;;;37.92;8.00;98854.03;5058532;28;20052;-68
2023/04/22 07:55:00;;;;;;;3.90;1.30;;;;;;;38.44;6.93;98849.03;5075051;28;20048;-69
2023/04/22 07:57:26;;;;;;;5.85;2.03;;;;;;;37.53;7.61;98852.16;5074794;28;20122;-68
2023/04/22 07:59:53;;;;;;;12.50;1.30;;;;;;;38.68;6.94;98846.09;5042569;28;20044;-68
2023/04/22 08:02:18;;;;;;;6.43;1.35;;;;;;;39.96;6.21;98853.97;5040826;28;20103;-68
2023/04/22 08:04:44;;;;;;;6.57;1.40;;;;;;;40.39;5.82;98846.38;5057194;28;20048;-68
2023/04/22 08:07:10;;;;;;;8.88;1.50;;;;;;;41.14;5.69;98861.88;5037952;28;20043;-69
2023/04/22 08:09:36;;;;;;;9.90;2.13;;;;;;;41.95;5.42;98856.47;5065140;28;20052;-69
2023/04/22 08:12:02;;;;;;;6.40;1.40;;;;;;;43.02;4.84;98846.56;5053422;28;20430;-69
2023/04/22 08:14:28;;;;;;;5.20;1.15;;;;;;;42.79;4.77;98854.41;5040261;28;20484;-69
2023/04/22 08:16:54;;;;;;;8.45;1.30;;;;;;;42.58;4.78;98854.25;5055517;28;20506;-69
2023/04/22 08:19:20;;;;;;;7.93;1.10;;;;;;;42.30;5.04;98849.22;5064254;28;20040;-68
2023/04/22 08:21:47;;;;;;;3.63;1.00;;;;;;;41.18;5.16;98850.78;5054137;28;20040;-68
2023/04/22 08:24:14;;;;;;;5.75;1.10;;;;;;;40.01;5.55;98852.88;5049936;28;20040;-69
2023/04/22 08:26:40;;;;;;;6.50;1.40;;;;;;;40.42;5.73;98859.53;5056631;28;20527;-68
2023/04/22 08:29:07;;;;;;;14.30;1.90;;;;;;;41.34;5.26;98852.16;5070176;28;20173;-69
2023/04/22 08:31:33;;;;;;;10.57;1.70;;;;;;;41.28;5.57;98850.91;5039681;28;20046;-68
2023/04/22 08:33:59;;;;;;;7.35;1.20;;;;;;;42.60;4.64;98851.84;5072065;28;20418;-68
2023/04/22 08:36:26;;;;;;;4.93;1.35;;;;;;;43.84;4.01;98849.28;5048079;28;20352;-68
2023/04/22 08:38:53;;;;;;;6.88;1.20;;;;;;;44.43;3.58;98842.19;5047872;28;20530;-68
2023/04/22 08:41:21;;;;;;;4.50;1.00;;;;;;;43.50;3.90;98839.66;5064075;28;20036;-69
2023/04/22 08:43:48;;;;;;;1.30;0.80;;;;;;;42.42;4.11;98842.56;5037997;28;20130;-69
2023/04/22 08:46:14;;;;;;;4.32;0.80;;;;;;;43.57;3.75;98847.22;5056082;28;20097;-69
2023/04/22 08:48:41;;;;;;;8.38;1.10;;;;;;;45.21;2.79;98840.06;5055674;28;20485;-66
2023/04/22 08:51:07;;;;;;;6.70;1.40;;;;;;;46.84;2.72;98833.69;5087011;28;20098;-70
2023/04/22 08:53:33;;;;;;;2.90;0.80;;;;;;;47.49;2.24;98836.16;5053993;28;20040;-71
2023/04/22 08:56:00;;;;;;;9.10;1.35;;;;;;;45.98;2.46;98840.47;5029984;28;20402;-70
2023/04/22 08:58:27;;;;;;;3.95;1.20;;;;;;;44.28;3.39;98824.59;5034741;28;20098;-69
2023/04/22 09:00:53;;;;;;;8.23;1.48;;;;;;;43.78;3.82;98830.50;5018720;28;20160;-70
2023/04/22 09:03:21;;;;;;;9.23;1.00;;;;;;;44.43;3.66;98826.19;5002214;28;20198;-69
2023/04/22 09:05:47;;;;;;;12.30;1.45;;;;;;;43.33;4.07;98820.78;5016650;28;20048;-69
2023/04/22 09:08:13;;;;;;;7.63;1.30;;;;;;;41.75;4.50;98833.53;5018026;28;20052;-71
2023/04/22 09:10:40;;;;;;;11.27;1.63;;;;;;;39.77;5.56;98817.03;5013372;28;20106;-70
2023/04/22 09:13:08;;;;;;;5.30;1.30;;;;;;;37.76;6.13;98819.94;4998430;28;20504;-69
2023/04/22 09:15:34;;;;;;;11.02;1.52;;;;;;;35.94;7.40;98808.75;4993526;28;20163;-69
2023/04/22 09:18:02;;;;;;;6.65;1.20;;;;;;;34.63;8.32;98821.63;4941970;28;20118;-69
2023/04/22 09:20:30;;;;;;;8.02;1.10;;;;;;;33.39;8.90;98806.50;4920464;28;20058;-70
2023/04/22 09:23:03;;;;;;;6.93;1.90;;;;;;;32.24;9.60;98808.13;4945668;28;20564;-69
2023/04/22 09:25:32;;;;;;;12.65;1.60;;;;;;;31.36;10.29;98811.88;4921578;28;20051;-70
2023/04/22 09:27:58;;;;;;;12.18;1.80;;;;;;;30.62;10.82;98809.75;4905898;28;20082;-69
2023/04/22 09:30:28;;;;;;;11.05;2.97;;;;;;;29.99;11.17;98811.63;4900406;28;20050;-69
2023/04/22 09:33:03;;;;;;;17.90;1.98;;;;;;;29.57;11.72;98807.16;4962599;28;20048;-70
2023/04/22 09:35:33;;;;;;;7.35;1.45;;;;;;;28.96;11.34;98809.28;4976147;28;20046;-69
2023/04/22 09:38:02;;;;;;;6.85;1.67;;;;;;;28.58;11.40;98810.38;4960115;28;20061;-68
2023/04/22 09:40:30;;;;;;;9.05;1.65;;;;;;;30.61;10.60;98816.38;4968697;28;20519;-69
2023/04/22 09:42:59;;;;;;;5.47;1.40;;;;;;;33.80;8.93;98815.81;4976236;28;20456;-70
2023/04/22 09:45:34;;;;;;;8.43;1.27;;;;;;;37.07;6.67;98828.63;4962275;28;20425;-70
2023/04/22 09:48:18;;;;;;;10.10;1.48;;;;;;;39.98;5.36;98823.78;4958785;28;20544;-69
2023/04/22 09:50:46;;;;;;;9.30;1.40;;;;;;;42.15;4.85;98827.16;4967884;28;20064;-70
2023/04/22 09:53:17;;;;;;;16.05;2.28;;;;;;;43.90;3.85;98824.56;4984859;28;20053;-70
2023/04/22 09:55:45;;;;;;;13.23;1.50;;;;;;;43.81;3.78;98826.91;4984700;28;20064;-70
2023/04/22 09:58:13;;;;;;;6.80;1.83;;;;;;;43.92;3.93;98820.16;4995565;28;20060;-70
2023/04/22 10:00:47;;;;;;;17.30;1.83;;;;;;;42.55;4.34;98818.72;5015851;28;20140;-72
2023/04/22 10:03:14;;;;;;;14.38;2.00;;;;;;;41.72;4.63;98829.53;5005164;28;20139;-70
2023/04/22 10:05:43;;;;;;;11.48;1.40;;;;;;;43.21;4.18;98821.13;5036887;28;20045;-70
2023/04/22 10:08:09;;;;;;;17.88;1.50;;;;;;;44.82;3.57;98834.56;5020492;28;20496;-70
2023/04/22 10:10:36;;;;;;;13.52;1.80;;;;;;;45.93;3.10;98840.09;5020103;28;20044;-70
2023/04/22 10:13:03;;;;;;;11.95;1.70;;;;;;;46.94;2.83;98835.63;4998616;28;20135;-73
2023/04/22 10:15:42;;;;;;;2.60;1.20;;;;;;;48.07;2.39;98832.13;5015664;28;20060;-70
2023/04/22 10:18:11;;;;;;;7.40;1.35;;;;;;;47.32;2.18;98825.94;4999007;28;20133;-70
2023/04/22 10:20:40;;;;;;;7.43;1.47;;;;;;;45.38;2.92;98825.94;5015774;28;20045;-70
2023/04/22 10:23:15;;;;;;;5.47;1.73;;;;;;;43.08;3.89;98817.84;5032181;28;20057;-70
2023/04/22 10:25:42;;;;;;;6.90;1.70;;;;;;;40.54;4.60;98815.59;4999225;28;20175;-69
2023/04/22 10:28:09;;;;;;;5.22;1.52;;;;;;;38.47;5.67;98817.00;5015441;28;20183;-70
2023/04/22 10:30:38;;;;;;;9.93;1.70;;;;;;;36.72;6.56;98801.84;4999167;28;20055;-69
2023/04/22 10:33:30;;;;;;;3.83;1.60;;;;;;;35.16;7.19;98794.09;5014851;28;20464;-69
2023/04/22 10:36:20;;;;;;;7.30;1.80;;;;;;;33.93;8.30;98797.47;4999177;28;20494;-69
2023/04/22 10:38:54;;;;;;;11.63;2.40;;;;;;;32.91;8.90;98778.34;5005301;28;20041;-69
2023/04/22 10:41:33;;;;;;;5.15;2.15;;;;;;;34.80;8.25;98808.50;5006057;28;20079;-69
2023/04/22 10:44:01;;;;;;;6.57;1.67;;;;;;;37.28;6.67;98802.72;5012108;28;20055;-71
2023/04/22 10:46:38;;;;;;;7.05;1.65;;;;;;;39.48;5.36;98803.75;5055048;28;20599;-71
2023/04/22 10:49:09;;;;;;;11.85;1.20;;;;;;;41.06;4.72;98807.19;5043819;28;20105;-70
2023/04/22 10:51:45;;;;;;;4.03;1.50;;;;;;;42.38;4.19;98811.81;5054932;28;20139;-70
2023/04/22 10:54:30;;;;;;;5.32;1.58;;;;;;;42.96;4.12;98807.03;5053150;28;20040;-70
2023/04/22 10:57:03;;;;;;;4.97;1.42;;;;;;;41.33;4.38;98816.31;5056434;28;20048;-71
2023/04/22 10:59:31;;;;;;;5.05;1.73;;;;;;;39.58;5.25;98805.97;5038620;28;20137;-70
2023/04/22 11:02:17;;;;;;;8.82;1.80;;;;;;;38.62;6.03;98805.09;5055757;28;20048;-65
2023/04/22 11:04:45;;;;;;;9.60;1.63;;;;;;;39.52;5.64;98807.44;5054766;28;20110;-72
2023/04/22 11:07:16;;;;;;;7.43;1.52;;;;;;;40.60;4.80;98805.72;5018679;28;20040;-71
2023/04/22 11:09:45;;;;;;;9.73;1.80;;;;;;;40.28;5.32;98818.38;5018478;28;20061;-71
2023/04/22 11:12:34;;;;;;;4.65;1.60;;;;;;;39.63;5.53;98797.28;5018118;28;20406;-71
2023/04/22 11:15:13;;;;;;;6.75;1.95;;;;;;;40.36;4.82;98803.38;5018982;28;20049;-70
2023/04/22 11:17:42;;;;;;;6.10;1.50;;;;;;;40.73;4.39;98803.56;4995496;28;20507;-71
2023/04/22 11:20:09;;;;;;;8.93;1.90;;;;;;;40.77;4.66;98802.44;4987125;28;20425;-70
2023/04/22 11:22:36;;;;;;;7.47;1.40;;;;;;;40.13;4.86;98794.25;4988575;28;20408;-68
2023/04/22 11:25:03;;;;;;;5.38;1.80;;;;;;;39.13;5.39;98794.72;4966111;28;20062;-69
2023/04/22 11:27:30;;;;;;;11.98;2.00;;;;;;;37.74;5.75;98791.78;4979180;28;20161;-68
2023/04/22 11:30:07;;;;;;;15.77;2.60;;;;;;;36.28;6.82;98792.53;4979248;28;20542;-68
2023/04/22 11:32:35;;;;;;;8.85;2.75;;;;;;;34.95;7.77;98785.84;4995290;28;20165;-74
2023/04/22 11:35:03;;;;;;;8.15;2.15;;;;;;;33.92;8.36;98785.63;4974670;28;20123;-76
2023/04/22 11:37:30;;;;;;;13.20;2.65;;;;;;;32.93;8.73;98784.34;5002046;28;20057;-74
2023/04/22 11:40:02;;;;;;;9.95;2.40;;;;;;;32.17;9.26;98786.63;5001564;28;20098;-69